sensor_id;sensor_type;location;lat;lon;timestamp;P1;durP1;ratioP1;P2;durP2;ratioP2
25127;SDS011;13107;51.304;6.866;2023-03-12T00:01:23;6.57;;;2.20;;
25127;SDS011;13107;51.304;6.866;2023-03-12T00:05:31;3.50;;;1.95;;
25127;SDS011;13107;51.304;6.866;2023-03-12T00:09:35;4.32;;;2.17;;
25127;SDS011;13107;51.304;6.866;2023-03-12T00:13:39;4.40;;;2.13;;
25127;SDS011;13107;51.304;6.866;2023-03-12T00:17:40;8.13;;;1.67;;
25127;SDS011;13107;51.304;6.866;2023-03-12T00:21:42;6.90;;;2.00;;
25127;SDS011;13107;51.304;6.866;2023-03-12T00:25:44;5.35;;;2.10;;
25127;SDS011;13107;51.304;6.866;2023-03-12T00:29:47;4.70;;;1.73;;
25127;SDS011;13107;51.304;6.866;2023-03-12T00:33:49;4.25;;;1.60;;
25127;SDS011;13107;51.304;6.866;2023-03-12T00:37:50;5.25;;;1.70;;
25127;SDS011;13107;51.304;6.866;2023-03-12T00:41:52;8.48;;;1.60;;
25127;SDS011;13107;51.304;6.866;2023-03-12T00:45:54;6.32;;;1.73;;
25127;SDS011;13107;51.304;6.866;2023-03-12T00:49:55;5.22;;;1.60;;
25127;SDS011;13107;51.304;6.866;2023-03-12T00:53:57;4.60;;;1.77;;
25127;SDS011;13107;51.304;6.866;2023-03-12T00:57:59;8.27;;;2.03;;
25127;SDS011;13107;51.304;6.866;2023-03-12T01:02:01;6.45;;;1.70;;
25127;SDS011;13107;51.304;6.866;2023-03-12T01:06:02;6.78;;;1.77;;
25127;SDS011;13107;51.304;6.866;2023-03-12T01:10:05;3.78;;;1.45;;
25127;SDS011;13107;51.304;6.866;2023-03-12T01:14:09;3.78;;;1.25;;
25127;SDS011;13107;51.304;6.866;2023-03-12T01:18:10;3.55;;;1.50;;
25127;SDS011;13107;51.304;6.866;2023-03-12T01:22:12;4.10;;;1.60;;
25127;SDS011;13107;51.304;6.866;2023-03-12T01:26:14;5.00;;;1.45;;
25127;SDS011;13107;51.304;6.866;2023-03-12T01:30:16;6.05;;;1.25;;
25127;SDS011;13107;51.304;6.866;2023-03-12T01:34:17;6.68;;;1.77;;
25127;SDS011;13107;51.304;6.866;2023-03-12T01:38:19;8.95;;;1.65;;
25127;SDS011;13107;51.304;6.866;2023-03-12T01:42:21;4.37;;;1.40;;
25127;SDS011;13107;51.304;6.866;2023-03-12T01:46:36;7.05;;;1.67;;
25127;SDS011;13107;51.304;6.866;2023-03-12T01:50:39;4.57;;;1.50;;
25127;SDS011;13107;51.304;6.866;2023-03-12T01:54:47;9.20;;;1.77;;
25127;SDS011;13107;51.304;6.866;2023-03-12T01:59:13;3.25;;;1.70;;
25127;SDS011;13107;51.304;6.866;2023-03-12T02:03:18;3.75;;;1.60;;
25127;SDS011;13107;51.304;6.866;2023-03-12T02:07:20;3.22;;;1.40;;
25127;SDS011;13107;51.304;6.866;2023-03-12T02:11:22;6.50;;;1.95;;
25127;SDS011;13107;51.304;6.866;2023-03-12T02:15:23;6.95;;;1.55;;
25127;SDS011;13107;51.304;6.866;2023-03-12T02:19:38;5.55;;;1.73;;
25127;SDS011;13107;51.304;6.866;2023-03-12T02:28:22;9.93;;;1.70;;
25127;SDS011;13107;51.304;6.866;2023-03-12T02:32:27;3.35;;;1.60;;
25127;SDS011;13107;51.304;6.866;2023-03-12T02:36:34;5.15;;;1.58;;
25127;SDS011;13107;51.304;6.866;2023-03-12T02:40:38;8.18;;;2.05;;
25127;SDS011;13107;51.304;6.866;2023-03-12T02:44:45;6.43;;;1.60;;
25127;SDS011;13107;51.304;6.866;2023-03-12T02:48:47;4.55;;;1.62;;
25127;SDS011;13107;51.304;6.866;2023-03-12T02:52:48;3.72;;;1.40;;
25127;SDS011;13107;51.304;6.866;2023-03-12T02:56:50;4.57;;;1.48;;
25127;SDS011;13107;51.304;6.866;2023-03-12T03:00:52;5.07;;;1.87;;
25127;SDS011;13107;51.304;6.866;2023-03-12T03:04:54;5.18;;;1.50;;
25127;SDS011;13107;51.304;6.866;2023-03-12T03:08:56;5.32;;;1.62;;
25127;SDS011;13107;51.304;6.866;2023-03-12T03:12:58;6.55;;;1.40;;
25127;SDS011;13107;51.304;6.866;2023-03-12T03:17:00;4.57;;;1.58;;
25127;SDS011;13107;51.304;6.866;2023-03-12T03:21:03;5.60;;;1.50;;
25127;SDS011;13107;51.304;6.866;2023-03-12T03:25:06;6.43;;;1.60;;
25127;SDS011;13107;51.304;6.866;2023-03-12T03:29:09;4.62;;;1.40;;
25127;SDS011;13107;51.304;6.866;2023-03-12T03:33:11;2.42;;;1.27;;
25127;SDS011;13107;51.304;6.866;2023-03-12T03:37:13;3.83;;;1.20;;
25127;SDS011;13107;51.304;6.866;2023-03-12T03:41:15;5.35;;;1.50;;
25127;SDS011;13107;51.304;6.866;2023-03-12T03:45:18;6.50;;;1.37;;
25127;SDS011;13107;51.304;6.866;2023-03-12T03:49:20;8.55;;;1.92;;
25127;SDS011;13107;51.304;6.866;2023-03-12T03:53:23;4.25;;;1.50;;
25127;SDS011;13107;51.304;6.866;2023-03-12T03:57:25;2.22;;;1.20;;
25127;SDS011;13107;51.304;6.866;2023-03-12T04:01:27;4.12;;;1.23;;
25127;SDS011;13107;51.304;6.866;2023-03-12T04:05:29;5.40;;;1.33;;
25127;SDS011;13107;51.304;6.866;2023-03-12T04:09:31;7.60;;;1.50;;
25127;SDS011;13107;51.304;6.866;2023-03-12T04:13:33;4.28;;;1.48;;
25127;SDS011;13107;51.304;6.866;2023-03-12T04:17:34;3.92;;;1.20;;
25127;SDS011;13107;51.304;6.866;2023-03-12T04:21:36;5.10;;;1.30;;
25127;SDS011;13107;51.304;6.866;2023-03-12T04:25:39;4.68;;;1.33;;
25127;SDS011;13107;51.304;6.866;2023-03-12T04:29:41;6.90;;;1.30;;
25127;SDS011;13107;51.304;6.866;2023-03-12T04:33:43;6.57;;;1.35;;
25127;SDS011;13107;51.304;6.866;2023-03-12T04:37:45;9.35;;;1.85;;
25127;SDS011;13107;51.304;6.866;2023-03-12T04:41:47;6.28;;;1.33;;
25127;SDS011;13107;51.304;6.866;2023-03-12T04:45:48;7.07;;;1.17;;
25127;SDS011;13107;51.304;6.866;2023-03-12T04:49:50;3.55;;;1.20;;
25127;SDS011;13107;51.304;6.866;2023-03-12T04:53:52;4.40;;;1.33;;
25127;SDS011;13107;51.304;6.866;2023-03-12T04:57:53;6.87;;;1.33;;
25127;SDS011;13107;51.304;6.866;2023-03-12T05:01:55;5.00;;;1.42;;
25127;SDS011;13107;51.304;6.866;2023-03-12T05:05:57;6.18;;;1.60;;
25127;SDS011;13107;51.304;6.866;2023-03-12T05:09:58;4.10;;;1.30;;
25127;SDS011;13107;51.304;6.866;2023-03-12T05:14:00;6.60;;;1.02;;
25127;SDS011;13107;51.304;6.866;2023-03-12T05:18:02;8.57;;;1.40;;
25127;SDS011;13107;51.304;6.866;2023-03-12T05:22:04;3.62;;;1.33;;
25127;SDS011;13107;51.304;6.866;2023-03-12T05:26:06;4.35;;;1.42;;
25127;SDS011;13107;51.304;6.866;2023-03-12T05:30:08;6.72;;;1.80;;
25127;SDS011;13107;51.304;6.866;2023-03-12T05:34:11;8.73;;;1.85;;
25127;SDS011;13107;51.304;6.866;2023-03-12T05:38:13;3.12;;;1.42;;
25127;SDS011;13107;51.304;6.866;2023-03-12T05:42:15;7.65;;;1.60;;
25127;SDS011;13107;51.304;6.866;2023-03-12T05:46:17;5.70;;;1.60;;
25127;SDS011;13107;51.304;6.866;2023-03-12T05:50:19;6.45;;;1.65;;
25127;SDS011;13107;51.304;6.866;2023-03-12T05:54:20;8.20;;;1.60;;
25127;SDS011;13107;51.304;6.866;2023-03-12T05:58:22;4.72;;;1.67;;
25127;SDS011;13107;51.304;6.866;2023-03-12T06:02:24;10.75;;;1.70;;
25127;SDS011;13107;51.304;6.866;2023-03-12T06:06:25;7.22;;;1.77;;
25127;SDS011;13107;51.304;6.866;2023-03-12T06:10:29;4.80;;;1.48;;
25127;SDS011;13107;51.304;6.866;2023-03-12T06:14:31;6.28;;;1.87;;
25127;SDS011;13107;51.304;6.866;2023-03-12T06:18:33;5.85;;;1.58;;
25127;SDS011;13107;51.304;6.866;2023-03-12T06:22:35;6.53;;;1.77;;
25127;SDS011;13107;51.304;6.866;2023-03-12T06:26:38;6.50;;;1.80;;
25127;SDS011;13107;51.304;6.866;2023-03-12T06:30:40;9.15;;;1.92;;
25127;SDS011;13107;51.304;6.866;2023-03-12T06:34:42;7.45;;;1.65;;
25127;SDS011;13107;51.304;6.866;2023-03-12T06:38:44;5.05;;;1.70;;
25127;SDS011;13107;51.304;6.866;2023-03-12T06:42:45;7.40;;;1.83;;
25127;SDS011;13107;51.304;6.866;2023-03-12T06:46:47;7.07;;;2.15;;
25127;SDS011;13107;51.304;6.866;2023-03-12T06:50:49;10.63;;;2.05;;
25127;SDS011;13107;51.304;6.866;2023-03-12T06:54:51;8.15;;;2.05;;
25127;SDS011;13107;51.304;6.866;2023-03-12T06:58:53;7.75;;;2.03;;
25127;SDS011;13107;51.304;6.866;2023-03-12T07:02:55;10.00;;;2.20;;
25127;SDS011;13107;51.304;6.866;2023-03-12T07:06:57;9.63;;;2.50;;
25127;SDS011;13107;51.304;6.866;2023-03-12T07:10:59;5.72;;;1.77;;
25127;SDS011;13107;51.304;6.866;2023-03-12T07:15:02;4.95;;;1.80;;
25127;SDS011;13107;51.304;6.866;2023-03-12T07:19:04;5.72;;;2.05;;
25127;SDS011;13107;51.304;6.866;2023-03-12T07:23:06;10.88;;;2.22;;
25127;SDS011;13107;51.304;6.866;2023-03-12T07:27:08;6.53;;;2.30;;
25127;SDS011;13107;51.304;6.866;2023-03-12T07:31:10;8.60;;;2.83;;
25127;SDS011;13107;51.304;6.866;2023-03-12T07:35:12;6.15;;;2.08;;
25127;SDS011;13107;51.304;6.866;2023-03-12T07:39:13;5.87;;;2.10;;
25127;SDS011;13107;51.304;6.866;2023-03-12T07:43:15;7.60;;;2.05;;
25127;SDS011;13107;51.304;6.866;2023-03-12T07:47:19;7.43;;;2.10;;
25127;SDS011;13107;51.304;6.866;2023-03-12T07:51:24;6.20;;;2.45;;
25127;SDS011;13107;51.304;6.866;2023-03-12T07:55:26;7.43;;;2.55;;
25127;SDS011;13107;51.304;6.866;2023-03-12T07:59:28;5.85;;;2.00;;
25127;SDS011;13107;51.304;6.866;2023-03-12T08:03:30;6.37;;;2.12;;
25127;SDS011;13107;51.304;6.866;2023-03-12T08:07:32;6.65;;;2.15;;
25127;SDS011;13107;51.304;6.866;2023-03-12T08:11:35;9.77;;;2.58;;
25127;SDS011;13107;51.304;6.866;2023-03-12T08:15:37;8.65;;;2.45;;
25127;SDS011;13107;51.304;6.866;2023-03-12T08:19:39;4.15;;;2.33;;
25127;SDS011;13107;51.304;6.866;2023-03-12T08:23:41;7.80;;;2.22;;
25127;SDS011;13107;51.304;6.866;2023-03-12T08:27:43;8.50;;;2.30;;
25127;SDS011;13107;51.304;6.866;2023-03-12T08:31:44;6.72;;;2.15;;
25127;SDS011;13107;51.304;6.866;2023-03-12T08:36:04;8.48;;;2.87;;
25127;SDS011;13107;51.304;6.866;2023-03-12T08:40:06;8.45;;;2.83;;
25127;SDS011;13107;51.304;6.866;2023-03-12T08:44:14;8.02;;;2.67;;
25127;SDS011;13107;51.304;6.866;2023-03-12T08:48:16;5.32;;;2.70;;
25127;SDS011;13107;51.304;6.866;2023-03-12T08:52:17;6.80;;;2.37;;
25127;SDS011;13107;51.304;6.866;2023-03-12T08:56:19;9.10;;;3.05;;
25127;SDS011;13107;51.304;6.866;2023-03-12T09:00:22;5.20;;;2.53;;
25127;SDS011;13107;51.304;6.866;2023-03-12T09:04:25;5.45;;;2.95;;
25127;SDS011;13107;51.304;6.866;2023-03-12T09:08:27;5.50;;;3.00;;
25127;SDS011;13107;51.304;6.866;2023-03-12T09:12:28;9.23;;;2.92;;
25127;SDS011;13107;51.304;6.866;2023-03-12T09:16:30;6.00;;;3.40;;
25127;SDS011;13107;51.304;6.866;2023-03-12T09:20:32;7.95;;;3.55;;
25127;SDS011;13107;51.304;6.866;2023-03-12T09:24:33;6.30;;;3.20;;
25127;SDS011;13107;51.304;6.866;2023-03-12T09:28:35;8.05;;;4.20;;
25127;SDS011;13107;51.304;6.866;2023-03-12T09:32:37;5.75;;;3.97;;
25127;SDS011;13107;51.304;6.866;2023-03-12T09:36:39;5.50;;;4.18;;
25127;SDS011;13107;51.304;6.866;2023-03-12T09:40:42;6.55;;;4.40;;
25127;SDS011;13107;51.304;6.866;2023-03-12T09:44:47;7.80;;;4.53;;
25127;SDS011;13107;51.304;6.866;2023-03-12T09:48:52;6.95;;;5.05;;
25127;SDS011;13107;51.304;6.866;2023-03-12T09:52:59;7.40;;;4.25;;
25127;SDS011;13107;51.304;6.866;2023-03-12T09:57:08;6.87;;;5.03;;
25127;SDS011;13107;51.304;6.866;2023-03-12T10:01:31;7.45;;;4.85;;
25127;SDS011;13107;51.304;6.866;2023-03-12T10:10:15;9.25;;;5.00;;
25127;SDS011;13107;51.304;6.866;2023-03-12T10:27:00;6.20;;;4.57;;
25127;SDS011;13107;51.304;6.866;2023-03-12T10:31:04;4.97;;;4.00;;
25127;SDS011;13107;51.304;6.866;2023-03-12T10:35:16;4.53;;;3.78;;
25127;SDS011;13107;51.304;6.866;2023-03-12T10:39:21;4.78;;;4.10;;
25127;SDS011;13107;51.304;6.866;2023-03-12T10:43:23;4.45;;;3.83;;
25127;SDS011;13107;51.304;6.866;2023-03-12T10:47:27;6.00;;;4.43;;
25127;SDS011;13107;51.304;6.866;2023-03-12T10:51:51;5.43;;;4.75;;
25127;SDS011;13107;51.304;6.866;2023-03-12T11:00:08;6.10;;;5.47;;
25127;SDS011;13107;51.304;6.866;2023-03-12T11:04:18;9.40;;;6.25;;
25127;SDS011;13107;51.304;6.866;2023-03-12T11:08:31;8.88;;;7.72;;
25127;SDS011;13107;51.304;6.866;2023-03-12T11:12:35;9.88;;;8.40;;
25127;SDS011;13107;51.304;6.866;2023-03-12T11:16:40;10.95;;;9.50;;
25127;SDS011;13107;51.304;6.866;2023-03-12T11:20:41;13.60;;;9.75;;
25127;SDS011;13107;51.304;6.866;2023-03-12T11:24:56;13.65;;;10.75;;
25127;SDS011;13107;51.304;6.866;2023-03-12T11:29:04;13.10;;;11.10;;
25127;SDS011;13107;51.304;6.866;2023-03-12T11:33:10;12.73;;;11.12;;
25127;SDS011;13107;51.304;6.866;2023-03-12T11:50:19;11.60;;;10.23;;
25127;SDS011;13107;51.304;6.866;2023-03-12T11:59:05;12.32;;;9.82;;
25127;SDS011;13107;51.304;6.866;2023-03-12T12:03:32;11.60;;;10.00;;
25127;SDS011;13107;51.304;6.866;2023-03-12T12:20:38;12.52;;;11.00;;
25127;SDS011;13107;51.304;6.866;2023-03-12T12:29:14;14.57;;;11.65;;
25127;SDS011;13107;51.304;6.866;2023-03-12T12:33:47;13.80;;;11.60;;
25127;SDS011;13107;51.304;6.866;2023-03-12T12:37:58;13.77;;;11.95;;
25127;SDS011;13107;51.304;6.866;2023-03-12T12:42:09;15.95;;;12.37;;
25127;SDS011;13107;51.304;6.866;2023-03-12T12:46:27;17.08;;;11.93;;
25127;SDS011;13107;51.304;6.866;2023-03-12T12:50:34;20.80;;;13.13;;
25127;SDS011;13107;51.304;6.866;2023-03-12T13:03:26;20.62;;;13.00;;
25127;SDS011;13107;51.304;6.866;2023-03-12T13:07:30;19.20;;;11.00;;
25127;SDS011;13107;51.304;6.866;2023-03-12T13:11:38;22.40;;;11.00;;
25127;SDS011;13107;51.304;6.866;2023-03-12T13:15:43;24.42;;;10.80;;
25127;SDS011;13107;51.304;6.866;2023-03-12T13:19:45;23.15;;;9.80;;
25127;SDS011;13107;51.304;6.866;2023-03-12T13:24:10;21.15;;;9.45;;
25127;SDS011;13107;51.304;6.866;2023-03-12T13:36:35;23.55;;;9.85;;
25127;SDS011;13107;51.304;6.866;2023-03-12T13:40:38;24.20;;;9.57;;
25127;SDS011;13107;51.304;6.866;2023-03-12T13:45:22;23.83;;;9.30;;
25127;SDS011;13107;51.304;6.866;2023-03-12T13:49:26;27.08;;;9.70;;
25127;SDS011;13107;51.304;6.866;2023-03-12T13:53:40;23.48;;;10.20;;
25127;SDS011;13107;51.304;6.866;2023-03-12T13:57:48;27.42;;;9.85;;
25127;SDS011;13107;51.304;6.866;2023-03-12T14:01:55;29.42;;;11.02;;
25127;SDS011;13107;51.304;6.866;2023-03-12T14:19:26;30.00;;;7.47;;
25127;SDS011;13107;51.304;6.866;2023-03-12T14:23:34;23.85;;;7.25;;
25127;SDS011;13107;51.304;6.866;2023-03-12T14:27:39;30.98;;;6.75;;
25127;SDS011;13107;51.304;6.866;2023-03-12T14:31:45;27.35;;;6.03;;
25127;SDS011;13107;51.304;6.866;2023-03-12T14:35:55;30.52;;;6.53;;
25127;SDS011;13107;51.304;6.866;2023-03-12T14:40:20;27.15;;;6.93;;
25127;SDS011;13107;51.304;6.866;2023-03-12T14:44:26;35.40;;;7.43;;
25127;SDS011;13107;51.304;6.866;2023-03-12T14:48:31;30.98;;;5.68;;
25127;SDS011;13107;51.304;6.866;2023-03-12T14:52:35;25.62;;;5.20;;
25127;SDS011;13107;51.304;6.866;2023-03-12T14:56:36;21.70;;;4.45;;
25127;SDS011;13107;51.304;6.866;2023-03-12T15:00:44;25.15;;;5.30;;
25127;SDS011;13107;51.304;6.866;2023-03-12T15:04:59;24.77;;;4.90;;
25127;SDS011;13107;51.304;6.866;2023-03-12T15:09:03;23.12;;;4.47;;
25127;SDS011;13107;51.304;6.866;2023-03-12T15:13:08;25.12;;;4.37;;
25127;SDS011;13107;51.304;6.866;2023-03-12T15:17:14;30.55;;;4.37;;
25127;SDS011;13107;51.304;6.866;2023-03-12T15:21:18;25.05;;;4.65;;
25127;SDS011;13107;51.304;6.866;2023-03-12T15:25:22;23.73;;;4.80;;
25127;SDS011;13107;51.304;6.866;2023-03-12T15:29:26;28.70;;;4.90;;
25127;SDS011;13107;51.304;6.866;2023-03-12T15:33:30;29.50;;;6.05;;
25127;SDS011;13107;51.304;6.866;2023-03-12T15:37:32;30.08;;;6.18;;
25127;SDS011;13107;51.304;6.866;2023-03-12T15:41:42;30.08;;;5.40;;
25127;SDS011;13107;51.304;6.866;2023-03-12T15:46:01;30.92;;;4.95;;
25127;SDS011;13107;51.304;6.866;2023-03-12T15:50:08;32.95;;;5.10;;
25127;SDS011;13107;51.304;6.866;2023-03-12T15:58:24;24.52;;;5.68;;
25127;SDS011;13107;51.304;6.866;2023-03-12T16:02:35;23.33;;;4.80;;
25127;SDS011;13107;51.304;6.866;2023-03-12T16:06:39;27.00;;;4.75;;
25127;SDS011;13107;51.304;6.866;2023-03-12T16:10:44;28.70;;;5.15;;
25127;SDS011;13107;51.304;6.866;2023-03-12T16:14:47;23.62;;;5.45;;
25127;SDS011;13107;51.304;6.866;2023-03-12T16:18:49;23.52;;;5.10;;
25127;SDS011;13107;51.304;6.866;2023-03-12T16:22:51;21.67;;;4.50;;
25127;SDS011;13107;51.304;6.866;2023-03-12T16:26:53;29.02;;;5.37;;
25127;SDS011;13107;51.304;6.866;2023-03-12T16:30:57;27.40;;;4.62;;
25127;SDS011;13107;51.304;6.866;2023-03-12T16:34:59;27.30;;;5.53;;
25127;SDS011;13107;51.304;6.866;2023-03-12T16:39:01;24.80;;;5.10;;
25127;SDS011;13107;51.304;6.866;2023-03-12T16:43:03;26.83;;;4.85;;
25127;SDS011;13107;51.304;6.866;2023-03-12T16:47:09;24.77;;;4.95;;
25127;SDS011;13107;51.304;6.866;2023-03-12T16:51:13;27.98;;;5.43;;
25127;SDS011;13107;51.304;6.866;2023-03-12T16:55:16;30.75;;;5.10;;
25127;SDS011;13107;51.304;6.866;2023-03-12T16:59:25;25.05;;;4.60;;
25127;SDS011;13107;51.304;6.866;2023-03-12T17:07:35;28.87;;;5.00;;
25127;SDS011;13107;51.304;6.866;2023-03-12T17:11:37;23.27;;;4.32;;
25127;SDS011;13107;51.304;6.866;2023-03-12T17:15:39;28.25;;;4.57;;
25127;SDS011;13107;51.304;6.866;2023-03-12T17:19:41;28.70;;;4.70;;
25127;SDS011;13107;51.304;6.866;2023-03-12T17:23:44;26.77;;;5.28;;
25127;SDS011;13107;51.304;6.866;2023-03-12T17:27:47;21.17;;;4.18;;
25127;SDS011;13107;51.304;6.866;2023-03-12T17:31:49;24.45;;;4.35;;
25127;SDS011;13107;51.304;6.866;2023-03-12T17:35:56;31.83;;;4.97;;
25127;SDS011;13107;51.304;6.866;2023-03-12T17:40:02;25.27;;;3.80;;
25127;SDS011;13107;51.304;6.866;2023-03-12T17:44:08;24.05;;;5.07;;
25127;SDS011;13107;51.304;6.866;2023-03-12T17:48:12;25.23;;;4.90;;
25127;SDS011;13107;51.304;6.866;2023-03-12T17:52:14;25.58;;;4.53;;
25127;SDS011;13107;51.304;6.866;2023-03-12T17:56:16;30.60;;;6.25;;
25127;SDS011;13107;51.304;6.866;2023-03-12T18:00:18;25.98;;;4.43;;
25127;SDS011;13107;51.304;6.866;2023-03-12T18:04:22;25.12;;;4.87;;
25127;SDS011;13107;51.304;6.866;2023-03-12T18:08:23;23.87;;;4.75;;
25127;SDS011;13107;51.304;6.866;2023-03-12T18:12:25;32.03;;;4.80;;
25127;SDS011;13107;51.304;6.866;2023-03-12T18:16:27;28.35;;;4.65;;
25127;SDS011;13107;51.304;6.866;2023-03-12T18:20:29;25.42;;;5.30;;
25127;SDS011;13107;51.304;6.866;2023-03-12T18:24:40;34.78;;;5.80;;
25127;SDS011;13107;51.304;6.866;2023-03-12T18:28:42;23.65;;;3.95;;
25127;SDS011;13107;51.304;6.866;2023-03-12T18:32:43;22.70;;;4.32;;
25127;SDS011;13107;51.304;6.866;2023-03-12T18:36:45;22.73;;;4.22;;
25127;SDS011;13107;51.304;6.866;2023-03-12T18:40:47;29.42;;;5.60;;
25127;SDS011;13107;51.304;6.866;2023-03-12T18:44:50;22.77;;;3.90;;
25127;SDS011;13107;51.304;6.866;2023-03-12T18:48:51;23.92;;;4.40;;
25127;SDS011;13107;51.304;6.866;2023-03-12T18:52:53;25.98;;;4.20;;
25127;SDS011;13107;51.304;6.866;2023-03-12T18:56:55;26.02;;;4.25;;
25127;SDS011;13107;51.304;6.866;2023-03-12T19:00:57;25.62;;;4.65;;
25127;SDS011;13107;51.304;6.866;2023-03-12T19:05:00;25.85;;;4.30;;
25127;SDS011;13107;51.304;6.866;2023-03-12T19:09:04;30.73;;;5.07;;
25127;SDS011;13107;51.304;6.866;2023-03-12T19:13:05;26.08;;;4.20;;
25127;SDS011;13107;51.304;6.866;2023-03-12T19:17:07;25.00;;;4.53;;
25127;SDS011;13107;51.304;6.866;2023-03-12T19:21:09;25.90;;;4.28;;
25127;SDS011;13107;51.304;6.866;2023-03-12T19:25:10;23.62;;;3.97;;
25127;SDS011;13107;51.304;6.866;2023-03-12T19:29:12;26.15;;;4.20;;
25127;SDS011;13107;51.304;6.866;2023-03-12T19:33:16;28.67;;;4.12;;
25127;SDS011;13107;51.304;6.866;2023-03-12T19:37:18;20.85;;;4.47;;
25127;SDS011;13107;51.304;6.866;2023-03-12T19:41:20;20.27;;;3.65;;
25127;SDS011;13107;51.304;6.866;2023-03-12T19:45:21;21.20;;;4.15;;
25127;SDS011;13107;51.304;6.866;2023-03-12T19:49:23;25.60;;;4.43;;
25127;SDS011;13107;51.304;6.866;2023-03-12T19:53:25;32.70;;;4.40;;
25127;SDS011;13107;51.304;6.866;2023-03-12T19:57:27;28.00;;;4.53;;
25127;SDS011;13107;51.304;6.866;2023-03-12T20:01:28;17.75;;;3.67;;
25127;SDS011;13107;51.304;6.866;2023-03-12T20:05:30;29.75;;;4.78;;
25127;SDS011;13107;51.304;6.866;2023-03-12T20:09:32;21.35;;;3.87;;
25127;SDS011;13107;51.304;6.866;2023-03-12T20:13:35;20.98;;;4.53;;
25127;SDS011;13107;51.304;6.866;2023-03-12T20:17:40;26.83;;;4.45;;
25127;SDS011;13107;51.304;6.866;2023-03-12T20:21:41;22.13;;;5.28;;
25127;SDS011;13107;51.304;6.866;2023-03-12T20:25:46;20.95;;;4.35;;
25127;SDS011;13107;51.304;6.866;2023-03-12T20:29:50;24.27;;;4.30;;
25127;SDS011;13107;51.304;6.866;2023-03-12T20:33:51;31.52;;;5.15;;
25127;SDS011;13107;51.304;6.866;2023-03-12T20:37:53;20.95;;;4.30;;
25127;SDS011;13107;51.304;6.866;2023-03-12T20:41:55;26.48;;;5.20;;
25127;SDS011;13107;51.304;6.866;2023-03-12T20:45:56;23.87;;;4.70;;
25127;SDS011;13107;51.304;6.866;2023-03-12T20:49:58;22.37;;;4.32;;
25127;SDS011;13107;51.304;6.866;2023-03-12T20:54:00;21.83;;;4.18;;
25127;SDS011;13107;51.304;6.866;2023-03-12T20:58:02;21.27;;;3.72;;
25127;SDS011;13107;51.304;6.866;2023-03-12T21:02:04;19.60;;;4.93;;
25127;SDS011;13107;51.304;6.866;2023-03-12T21:06:05;21.55;;;4.05;;
25127;SDS011;13107;51.304;6.866;2023-03-12T21:10:08;19.85;;;5.03;;
25127;SDS011;13107;51.304;6.866;2023-03-12T21:14:10;22.45;;;4.50;;
25127;SDS011;13107;51.304;6.866;2023-03-12T21:18:12;16.92;;;3.85;;
25127;SDS011;13107;51.304;6.866;2023-03-12T21:22:13;19.23;;;4.28;;
25127;SDS011;13107;51.304;6.866;2023-03-12T21:26:15;21.90;;;4.65;;
25127;SDS011;13107;51.304;6.866;2023-03-12T21:30:18;19.20;;;3.90;;
25127;SDS011;13107;51.304;6.866;2023-03-12T21:34:20;27.37;;;4.20;;
25127;SDS011;13107;51.304;6.866;2023-03-12T21:38:22;22.65;;;3.95;;
25127;SDS011;13107;51.304;6.866;2023-03-12T21:42:24;22.10;;;4.15;;
25127;SDS011;13107;51.304;6.866;2023-03-12T21:46:26;22.42;;;4.22;;
25127;SDS011;13107;51.304;6.866;2023-03-12T21:50:30;22.95;;;4.37;;
25127;SDS011;13107;51.304;6.866;2023-03-12T21:54:32;21.60;;;4.40;;
25127;SDS011;13107;51.304;6.866;2023-03-12T21:58:35;26.80;;;4.47;;
25127;SDS011;13107;51.304;6.866;2023-03-12T22:02:40;22.00;;;4.12;;
25127;SDS011;13107;51.304;6.866;2023-03-12T22:06:45;17.10;;;4.10;;
25127;SDS011;13107;51.304;6.866;2023-03-12T22:10:47;28.95;;;4.72;;
25127;SDS011;13107;51.304;6.866;2023-03-12T22:14:49;19.30;;;4.07;;
25127;SDS011;13107;51.304;6.866;2023-03-12T22:18:51;18.67;;;4.25;;
25127;SDS011;13107;51.304;6.866;2023-03-12T22:22:52;17.10;;;3.95;;
25127;SDS011;13107;51.304;6.866;2023-03-12T22:26:54;18.83;;;4.05;;
25127;SDS011;13107;51.304;6.866;2023-03-12T22:30:57;23.73;;;4.00;;
25127;SDS011;13107;51.304;6.866;2023-03-12T22:34:59;13.18;;;3.62;;
25127;SDS011;13107;51.304;6.866;2023-03-12T22:39:02;20.98;;;3.97;;
25127;SDS011;13107;51.304;6.866;2023-03-12T22:43:03;23.00;;;4.00;;
25127;SDS011;13107;51.304;6.866;2023-03-12T22:47:05;15.35;;;3.12;;
25127;SDS011;13107;51.304;6.866;2023-03-12T22:51:07;25.37;;;3.60;;
25127;SDS011;13107;51.304;6.866;2023-03-12T22:55:09;19.55;;;4.43;;
25127;SDS011;13107;51.304;6.866;2023-03-12T22:59:11;21.05;;;3.72;;
25127;SDS011;13107;51.304;6.866;2023-03-12T23:03:12;20.95;;;3.30;;
25127;SDS011;13107;51.304;6.866;2023-03-12T23:07:14;18.73;;;3.35;;
25127;SDS011;13107;51.304;6.866;2023-03-12T23:11:18;19.95;;;3.30;;
25127;SDS011;13107;51.304;6.866;2023-03-12T23:15:20;21.65;;;3.72;;
25127;SDS011;13107;51.304;6.866;2023-03-12T23:19:32;18.08;;;2.83;;
25127;SDS011;13107;51.304;6.866;2023-03-12T23:23:34;18.12;;;3.90;;
25127;SDS011;13107;51.304;6.866;2023-03-12T23:27:37;19.58;;;3.42;;
25127;SDS011;13107;51.304;6.866;2023-03-12T23:31:39;16.85;;;3.40;;
25127;SDS011;13107;51.304;6.866;2023-03-12T23:35:40;22.77;;;3.72;;
25127;SDS011;13107;51.304;6.866;2023-03-12T23:39:42;24.27;;;4.10;;
25127;SDS011;13107;51.304;6.866;2023-03-12T23:43:55;21.10;;;4.10;;
25127;SDS011;13107;51.304;6.866;2023-03-12T23:47:58;19.15;;;4.10;;
25127;SDS011;13107;51.304;6.866;2023-03-12T23:52:00;18.27;;;4.53;;
25127;SDS011;13107;51.304;6.866;2023-03-12T23:56:02;22.48;;;3.37;;
